createdAt,value
2022-12-09T00:01:07.139Z,13.60
2022-12-09T00:06:14.035Z,14.97
2022-12-09T00:11:17.979Z,15.60
2022-12-09T00:16:22.162Z,14.47
2022-12-09T00:21:30.589Z,13.53
2022-12-09T00:26:34.669Z,17.83
2022-12-09T00:31:39.492Z,17.80
2022-12-09T00:36:44.177Z,16.73
2022-12-09T00:41:49.245Z,18.47
2022-12-09T00:46:52.415Z,18.47
2022-12-09T00:51:59.893Z,18.87
2022-12-09T00:57:03.301Z,18.00
2022-12-09T01:02:06.368Z,20.40
2022-12-09T01:07:12.492Z,19.80
2022-12-09T01:12:16.285Z,20.43
2022-12-09T01:17:19.525Z,19.83
2022-12-09T01:22:23.863Z,19.53
2022-12-09T01:27:27.695Z,18.67
2022-12-09T01:32:31.133Z,19.80
2022-12-09T01:37:38.374Z,18.97
2022-12-09T01:42:41.399Z,19.03
2022-12-09T01:47:44.587Z,17.70
2022-12-09T01:52:50.566Z,19.13
2022-12-09T01:57:53.694Z,18.70
2022-12-09T02:02:58.075Z,18.00
2022-12-09T02:08:02.804Z,19.83
2022-12-09T02:13:12.330Z,20.60
2022-12-09T02:18:22.423Z,20.33
2022-12-09T02:23:33.172Z,20.07
2022-12-09T02:29:12.565Z,18.60
2022-12-09T02:34:20.421Z,19.20
2022-12-09T02:39:36.620Z,18.60
2022-12-09T02:44:41.831Z,17.37
2022-12-09T02:49:51.940Z,17.53
2022-12-09T02:54:57.372Z,16.50
2022-12-09T03:00:00.696Z,15.13
2022-12-09T03:05:14.273Z,14.97
2022-12-09T03:10:23.002Z,14.47
2022-12-09T03:15:29.846Z,14.53
2022-12-09T03:20:38.647Z,13.80
2022-12-09T03:25:45.544Z,12.23
2022-12-09T03:30:49.784Z,12.80
2022-12-09T03:35:58.186Z,11.57
2022-12-09T03:41:19.721Z,11.93
2022-12-09T03:46:23.929Z,10.73
2022-12-09T03:51:34.712Z,11.57
2022-12-09T03:56:41.756Z,10.93
2022-12-09T04:01:46.449Z,12.03
2022-12-09T04:06:53.858Z,11.03
2022-12-09T04:11:59.793Z,11.80
2022-12-09T04:17:03.456Z,10.87
2022-12-09T04:22:07.867Z,11.57
2022-12-09T04:27:12.726Z,12.93
2022-12-09T04:32:15.864Z,10.57
2022-12-09T04:37:20.268Z,13.23
2022-12-09T04:42:23.310Z,13.03
2022-12-09T04:47:26.357Z,14.57
2022-12-09T04:52:30.831Z,13.80
2022-12-09T04:57:34.092Z,12.20
2022-12-09T05:02:38.130Z,12.63
2022-12-09T05:07:43.108Z,11.67
2022-12-09T05:12:46.436Z,10.63
2022-12-09T05:17:49.838Z,11.97
2022-12-09T05:22:56.696Z,11.80
2022-12-09T05:28:00.583Z,12.40
2022-12-09T05:33:04.233Z,10.47
2022-12-09T05:38:09.054Z,10.30
2022-12-09T05:43:12.114Z,11.00
2022-12-09T05:48:15.627Z,9.87
2022-12-09T05:53:20.388Z,10.57
2022-12-09T05:58:23.586Z,9.83
2022-12-09T06:03:40.952Z,10.23
2022-12-09T06:08:47.304Z,11.20
2022-12-09T06:13:51.349Z,11.00
2022-12-09T06:18:55.175Z,11.20
2022-12-09T06:23:59.987Z,10.30
2022-12-09T06:29:03.603Z,11.87
2022-12-09T06:34:06.902Z,11.83
2022-12-09T06:39:11.464Z,12.80
2022-12-09T06:44:21.747Z,11.63
2022-12-09T06:49:29.432Z,10.20
2022-12-09T06:54:34.069Z,11.30
2022-12-09T06:59:37.548Z,10.93
2022-12-09T07:04:40.729Z,10.97
2022-12-09T07:09:45.803Z,10.57
2022-12-09T07:14:49.754Z,11.53
2022-12-09T07:19:53.510Z,10.30
2022-12-09T07:24:58.042Z,11.30
2022-12-09T07:30:01.393Z,11.80
2022-12-09T07:35:05.172Z,10.77
2022-12-09T07:40:10.530Z,11.13
2022-12-09T07:45:14.620Z,10.10
2022-12-09T07:50:17.907Z,10.43
2022-12-09T07:55:22.866Z,10.00
2022-12-09T08:00:28.705Z,11.40
2022-12-09T08:05:31.855Z,11.27
2022-12-09T08:10:37.037Z,11.90
2022-12-09T08:15:40.679Z,13.37
2022-12-09T08:20:43.817Z,13.37
2022-12-09T08:25:54.329Z,13.00
2022-12-09T08:30:58.339Z,13.90
2022-12-09T08:36:02.014Z,17.90
2022-12-09T08:41:13.341Z,15.53
2022-12-09T08:46:17.164Z,15.73
2022-12-09T08:51:20.907Z,15.20
2022-12-09T08:56:28.012Z,17.27
2022-12-09T09:01:35.629Z,15.00
2022-12-09T09:06:41.491Z,19.10
2022-12-09T09:11:46.694Z,15.87
2022-12-09T09:16:50.076Z,18.60
2022-12-09T09:21:53.943Z,18.53
2022-12-09T09:26:58.954Z,22.13
2022-12-09T09:32:02.813Z,20.70
2022-12-09T09:37:06.218Z,18.40
2022-12-09T09:42:30.907Z,20.77
2022-12-09T09:47:39.703Z,22.53
2022-12-09T09:52:44.019Z,19.67
2022-12-09T09:57:53.687Z,18.17
2022-12-09T10:03:02.544Z,18.60
2022-12-09T10:08:23.769Z,22.00
2022-12-09T10:13:44.331Z,20.03
2022-12-09T10:19:07.735Z,19.77
2022-12-09T10:24:24.943Z,18.80
2022-12-09T10:29:42.804Z,19.80
2022-12-09T10:34:47.748Z,19.00
2022-12-09T10:39:53.677Z,18.83
2022-12-09T10:45:07.912Z,19.33
2022-12-09T10:50:27.396Z,18.90
2022-12-09T10:55:35.834Z,20.30
2022-12-09T11:00:40.444Z,18.17
2022-12-09T11:05:43.944Z,17.17
2022-12-09T11:10:50.467Z,17.50
2022-12-09T11:15:59.456Z,16.90
2022-12-09T11:21:05.876Z,17.43
2022-12-09T11:26:24.524Z,16.43
2022-12-09T11:31:33.789Z,17.33
2022-12-09T11:36:44.373Z,18.30
2022-12-09T11:42:11.501Z,17.03
2022-12-09T11:47:27.825Z,17.73
2022-12-09T11:52:32.169Z,17.40
2022-12-09T11:57:37.933Z,16.77
2022-12-09T12:02:48.164Z,17.00
2022-12-09T12:08:02.154Z,15.87
2022-12-09T12:13:13.454Z,17.37
2022-12-09T12:18:20.450Z,15.73
2022-12-09T12:23:42.650Z,15.13
2022-12-09T12:29:07.486Z,14.80
2022-12-09T12:34:26.705Z,15.60
2022-12-09T12:39:43.961Z,16.30
2022-12-09T12:45:10.679Z,17.10
2022-12-09T12:50:43.373Z,17.23
2022-12-09T12:55:56.413Z,16.73
2022-12-09T13:01:05.302Z,16.17
2022-12-09T13:06:15.026Z,16.67
2022-12-09T13:11:22.820Z,17.80
2022-12-09T13:16:29.147Z,18.23
2022-12-09T13:21:34.027Z,19.03
2022-12-09T13:26:45.659Z,17.87
2022-12-09T13:31:56.884Z,18.13
2022-12-09T13:37:01.355Z,18.70
2022-12-09T13:42:21.698Z,18.40
2022-12-09T13:47:34.951Z,18.30
2022-12-09T13:52:50.455Z,18.63
2022-12-09T13:58:12.711Z,18.27
2022-12-09T14:03:27.003Z,19.23
2022-12-09T14:08:35.794Z,18.77
2022-12-09T14:13:38.970Z,20.57
2022-12-09T14:18:42.939Z,20.63
2022-12-09T14:24:19.406Z,18.90
2022-12-09T14:29:52.623Z,18.13
2022-12-09T14:35:07.268Z,19.47
2022-12-09T14:40:31.046Z,20.43
2022-12-09T14:45:48.530Z,20.60
2022-12-09T14:51:07.889Z,18.37
2022-12-09T14:56:18.259Z,19.47
2022-12-09T15:01:22.889Z,19.73
2022-12-09T15:06:28.890Z,21.20
2022-12-09T15:11:35.393Z,24.13
2022-12-09T15:16:47.698Z,22.83
2022-12-09T15:21:53.960Z,24.63
2022-12-09T15:27:02.097Z,23.30
2022-12-09T15:32:21.230Z,23.53
2022-12-09T15:37:28.388Z,25.77
2022-12-09T15:42:35.332Z,29.87
2022-12-09T15:47:43.550Z,30.43
2022-12-09T15:52:52.365Z,20.63
2022-12-09T15:58:00.493Z,21.07
2022-12-09T16:03:06.469Z,22.73
2022-12-09T16:08:10.849Z,23.90
2022-12-09T16:13:16.206Z,16.53
2022-12-09T16:18:26.206Z,17.57
2022-12-09T16:23:30.135Z,17.23
2022-12-09T16:28:33.184Z,14.77
2022-12-09T16:33:41.115Z,16.13
2022-12-09T16:39:05.294Z,18.83
2022-12-09T16:44:19.861Z,18.90
2022-12-09T16:49:25.394Z,18.10
2022-12-09T16:54:31.192Z,15.90
2022-12-09T16:59:38.169Z,15.83
2022-12-09T17:04:42.921Z,16.17
2022-12-09T17:09:46.003Z,15.77
2022-12-09T17:14:49.900Z,16.67
2022-12-09T17:19:55.374Z,15.20
2022-12-09T17:24:58.499Z,15.57
2022-12-09T17:30:01.499Z,15.60
2022-12-09T17:35:12.052Z,16.57
2022-12-09T17:40:15.797Z,16.50
2022-12-09T17:45:18.977Z,17.63
2022-12-09T17:50:23.335Z,17.43
2022-12-09T17:55:26.418Z,17.70
2022-12-09T18:00:30.133Z,19.90
2022-12-09T18:05:37.647Z,20.33
2022-12-09T18:10:40.757Z,21.27
2022-12-09T18:15:43.775Z,21.17
2022-12-09T18:20:48.180Z,20.87
2022-12-09T18:25:51.305Z,18.80
2022-12-09T18:30:56.296Z,18.87
2022-12-09T18:36:00.750Z,18.67
2022-12-09T18:41:04.688Z,19.20
2022-12-09T18:46:10.924Z,17.57
2022-12-09T18:51:20.529Z,17.73
2022-12-09T18:56:25.136Z,18.90
2022-12-09T19:01:30.077Z,22.00
2022-12-09T19:06:35.811Z,25.23
2022-12-09T19:11:40.651Z,24.50
2022-12-09T19:16:44.417Z,21.70
2022-12-09T19:21:49.302Z,21.13
2022-12-09T19:26:53.876Z,22.30
2022-12-09T19:31:58.457Z,22.00
2022-12-09T19:37:03.355Z,21.77
2022-12-09T19:42:06.439Z,21.47
2022-12-09T19:47:09.386Z,20.20
2022-12-09T19:52:14.017Z,20.33
2022-12-09T19:57:17.032Z,19.97
2022-12-09T20:02:20.609Z,21.77
2022-12-09T20:07:25.025Z,21.77
2022-12-09T20:12:28.140Z,22.03
2022-12-09T20:17:31.177Z,22.47
2022-12-09T20:22:35.669Z,21.07
2022-12-09T20:27:38.647Z,28.83
2022-12-09T20:32:43.845Z,27.23
2022-12-09T20:37:48.233Z,24.43
2022-12-09T20:42:51.209Z,20.67
2022-12-09T20:47:54.197Z,21.17
2022-12-09T20:53:01.716Z,24.27
2022-12-09T20:58:04.719Z,22.00
2022-12-09T21:03:07.767Z,23.73
2022-12-09T21:08:12.368Z,24.40
2022-12-09T21:13:16.012Z,24.27
2022-12-09T21:18:18.969Z,19.80
2022-12-09T21:23:33.695Z,21.67
2022-12-09T21:28:38.800Z,25.60
2022-12-09T21:33:42.667Z,22.73
2022-12-09T21:38:47.513Z,22.23
2022-12-09T21:43:50.575Z,22.80
2022-12-09T21:49:01.579Z,21.60
2022-12-09T21:54:07.972Z,22.10
2022-12-09T21:59:11.949Z,21.40
2022-12-09T22:04:17.509Z,22.87
2022-12-09T22:09:21.964Z,22.60
2022-12-09T22:14:24.965Z,21.67
2022-12-09T22:19:27.994Z,22.13
2022-12-09T22:24:32.462Z,23.83
2022-12-09T22:29:36.801Z,21.03
2022-12-09T22:34:39.842Z,21.03
2022-12-09T22:39:45.295Z,21.30
2022-12-09T22:44:48.459Z,21.90
2022-12-09T22:49:51.469Z,21.10
2022-12-09T22:54:55.816Z,21.07
2022-12-09T22:59:58.915Z,21.50
2022-12-09T23:05:01.911Z,22.50
2022-12-09T23:10:07.604Z,22.83
2022-12-09T23:15:11.879Z,21.97
2022-12-09T23:20:14.934Z,21.53
2022-12-09T23:25:19.412Z,21.90
2022-12-09T23:30:22.392Z,23.43
2022-12-09T23:35:28.203Z,25.83
2022-12-09T23:40:32.633Z,26.30
2022-12-09T23:45:35.708Z,24.13
2022-12-09T23:50:38.715Z,24.53
2022-12-09T23:55:44.406Z,25.27
